KFNT

Bishop International Airport

Airport
ICAO code
KFNT
IATA Code
FNT
Summary
ICAO Region
NAM
ICAO Territory
Location

Flint, Michigan

Serving
Flint
Elevation
782 ft
Coordinates
42° 57' 39" N , 83° 44' 32" W
KCC
Airport CFIT
Altimeter Temperature Error Correction
Airport WX
Cumulonimbus
Metar
KFNT 251753Z 02004KT 10SM FEW037 FEW050 OVC075 23/14 A3022 RMK AO2 SLP229 T02330144 10239 20167 58003

Description

Bishop International Airport is a commercial and general aviation airport located in Flint, Michigan, USA.

Airport map

Aerial View

SKYbrary Partners:

Safety knowledge contributed by: